Time;durP1;ratioP1;P1;durP2;ratioP2;P2;SDS_P1;SDS_P2;PMS_P1;PMS_P2;Temp;Humidity;BMP_temperature;BMP_pressure;BME280_temperature;BME280_humidity;BME280_pressure;Samples;Min_cycle;Max_cycle;Signal;HPM_P1;HPM_P2
2021/07/31 06:30:37;;;;;;;;;;;;;;;;;;2304603;23;1697;-85
2021/07/31 06:31:39;;;;;;;;;;;;;;;;;;2046564;29;1421;-85
2021/07/31 06:32:41;;;;;;;;;;;;;;;;;;2047478;28;1317;-82
2021/07/31 06:33:42;;;;;;;;;;;;;;;;;;2054276;28;1385;-78
2021/07/31 06:34:44;;;;;;;;;;;;;;;;;;2055534;28;1671;-78
2021/07/31 06:35:44;;;;;;;;;;;;;;;;;;2054066;28;1910;-78
2021/07/31 06:36:46;;;;;;;;;;;;;;;;;;2047954;29;1341;-81
2021/07/31 06:37:47;;;;;;;;;;;;;;;;;;2048395;29;1351;-78
2021/07/31 06:38:49;;;;;;;;;;;;;;;;;;2036062;29;1430;-81
2021/07/31 06:39:49;;;;;;;;;;;;;;;;;;2046267;28;1527;-79
2021/07/31 06:40:51;;;;;;;;;;;;;;;;;;2044595;28;1641;-79
2021/07/31 06:41:52;;;;;;;;;;;;;;;;;;2046002;28;1622;-79
2021/07/31 06:42:53;;;;;;;;;;;;;;;;;;2046094;28;1695;-79
2021/07/31 06:43:54;;;;;;;;;;;;;;;;;;2044798;29;1318;-78
2021/07/31 06:44:56;;;;;;;;;;;;;;;;;;2052976;28;1559;-78
2021/07/31 06:45:57;;;;;;;;;;;;;;;;;;2045664;29;1269;-78
2021/07/31 06:47:00;;;;;;;;;;;;;;;;;;2044564;29;1712;-78
2021/07/31 06:48:00;;;;;;;;;;;;;;;;;;2044694;28;1354;-80
2021/07/31 06:49:03;;;;;;;;;;;;;;;;;;2036712;29;1564;-79
2021/07/31 06:50:09;;;;;;;;;;;;;;;;;;2038522;29;1576;-78
2021/07/31 06:51:11;;;;;;;;;;;;;;;;;;2038694;29;1464;-78
2021/07/31 06:52:12;;;;;;;;;;;;;;;;;;2037862;29;1592;-79
2021/07/31 06:53:14;;;;;;;;;;;;;;;;;;2038731;29;1423;-79
2021/07/31 06:54:15;;;;;;;;;;;;;;;;;;2044377;29;1326;-79
2021/07/31 06:55:16;;;;;;;;;;;;;;;;;;2043979;29;1596;-78
2021/07/31 06:56:17;;;;;;;;;;;;;;;;;;2044565;29;1942;-79
2021/07/31 06:57:19;;;;;;;;;;;;;;;;;;2044555;29;1338;-79
2021/07/31 06:58:20;;;;;;;;;;;;;;;;;;2044653;29;1629;-78
2021/07/31 06:59:21;;;;;;;;;;;;;;;;;;2044456;29;1459;-78
2021/07/31 07:00:22;;;;;;;;;;;;;;;;;;2044339;29;1345;-82
2021/07/31 07:01:24;;;;;;;;;;;;;;;;;;2043682;29;1397;-81
2021/07/31 07:02:26;;;;;;;;;;;;;;;;;;2036267;29;1930;-82
2021/07/31 07:03:29;;;;;;;;;;;;;;;;;;2044260;28;1543;-82
2021/07/31 07:04:30;;;;;;;;;;;;;;;;;;2047811;29;1801;-83
2021/07/31 07:05:31;;;;;;;;;;;;;;;;;;2037802;29;1346;-82
2021/07/31 07:06:32;;;;;;;;;;;;;;;;;;2048197;28;1686;-82
2021/07/31 07:07:34;;;;;;;;;;;;;;;;;;2044440;29;1403;-83
2021/07/31 07:08:34;;;;;;;;;;;;;;;;;;2036728;29;1395;-81
2021/07/31 07:09:36;;;;;;;;;;;;;;;;;;2047907;28;1806;-82
2021/07/31 07:10:37;;;;;;;;;;;;;;;;;;2054504;28;1885;-81
2021/07/31 07:11:39;;;;;;;;;;;;;;;;;;2046956;29;1683;-82
2021/07/31 07:12:39;;;;;;;;;;;;;;;;;;2046480;28;1529;-82
2021/07/31 07:13:41;;;;;;;;;;;;;;;;;;2047315;29;1353;-81
2021/07/31 07:14:42;;;;;;;;;;;;;;;;;;2038377;29;1707;-80
2021/07/31 07:15:43;;;;;;;;;;;;;;;;;;2047615;29;1618;-81
2021/07/31 07:16:44;;;;;;;;;;;;;;;;;;2045900;29;1972;-81
2021/07/31 07:17:47;;;;;;;;;;;;;;;;;;2047955;29;1686;-81
2021/07/31 07:18:48;;;;;;;;;;;;;;;;;;2050950;28;1259;-81
2021/07/31 07:19:50;;;;;;;;;;;;;;;;;;2056045;28;1544;-82
2021/07/31 07:20:50;;;;;;;;;;;;;;;;;;2055973;28;1559;-81
2021/07/31 07:21:52;;;;;;;;;;;;;;;;;;2047770;29;1684;-81
2021/07/31 07:22:53;;;;;;;;;;;;;;;;;;2045914;28;1526;-81
2021/07/31 07:23:55;;;;;;;;;;;;;;;;;;2047395;29;1331;-81
2021/07/31 07:24:55;;;;;;;;;;;;;;;;;;2038609;29;1623;-81
2021/07/31 07:25:57;;;;;;;;;;;;;;;;;;2039154;29;1353;-81
2021/07/31 07:26:58;;;;;;;;;;;;;;;;;;2046904;28;1373;-81
2021/07/31 07:28:00;;;;;;;;;;;;;;;;;;2054691;28;1353;-81
2021/07/31 07:29:00;;;;;;;;;;;;;;;;;;2048159;29;1581;-81
2021/07/31 07:30:02;;;;;;;;;;;;;;;;;;2048173;28;1487;-82
2021/07/31 07:31:03;;;;;;;;;;;;;;;;;;2049537;28;1512;-82
2021/07/31 07:32:05;;;;;;;;;;;;;;;;;;2055596;28;1585;-82
2021/07/31 07:33:07;;;;;;;;;;;;;;;;;;2050885;28;1597;-82
2021/07/31 07:34:09;;;;;;;;;;;;;;;;;;2042762;29;1709;-82
2021/07/31 07:35:10;;;;;;;;;;;;;;;;;;2043107;28;1708;-82
2021/07/31 07:36:13;;;;;;;;;;;;;;;;;;2045392;28;1972;-82
2021/07/31 07:37:13;;;;;;;;;;;;;;;;;;2053184;28;1338;-82
2021/07/31 07:38:15;;;;;;;;;;;;;;;;;;2047166;28;1700;-82
2021/07/31 07:39:16;;;;;;;;;;;;;;;;;;2038641;28;1788;-82
2021/07/31 07:40:18;;;;;;;;;;;;;;;;;;2050978;28;1703;-81
2021/07/31 07:41:18;;;;;;;;;;;;;;;;;;2051023;28;1323;-82
2021/07/31 07:42:20;;;;;;;;;;;;;;;;;;2050403;28;1628;-82
2021/07/31 07:43:21;;;;;;;;;;;;;;;;;;2047989;28;1323;-82
2021/07/31 07:44:22;;;;;;;;;;;;;;;;;;2055119;28;1582;-81
2021/07/31 07:45:23;;;;;;;;;;;;;;;;;;2049250;28;1557;-82
2021/07/31 07:46:25;;;;;;;;;;;;;;;;;;2047042;29;1578;-81
2021/07/31 07:47:26;;;;;;;;;;;;;;;;;;2042890;29;1600;-81
2021/07/31 07:48:29;;;;;;;;;;;;;;;;;;2045198;29;1612;-81
2021/07/31 07:49:29;;;;;;;;;;;;;;;;;;2045068;29;1362;-81
2021/07/31 07:50:31;;;;;;;;;;;;;;;;;;2048141;28;1597;-81
2021/07/31 07:51:32;;;;;;;;;;;;;;;;;;2053288;28;1663;-81
2021/07/31 07:52:33;;;;;;;;;;;;;;;;;;2043851;29;1551;-81
2021/07/31 07:53:34;;;;;;;;;;;;;;;;;;2041416;28;1714;-81
2021/07/31 07:54:36;;;;;;;;;;;;;;;;;;2043541;29;1373;-81
2021/07/31 07:55:36;;;;;;;;;;;;;;;;;;2042219;29;1723;-81
2021/07/31 07:56:38;;;;;;;;;;;;;;;;;;2045252;29;1914;-81
2021/07/31 07:57:40;;;;;;;;;;;;;;;;;;2047310;28;1706;-82
2021/07/31 07:58:41;;;;;;;;;;;;;;;;;;2050586;28;1840;-83
2021/07/31 07:59:42;;;;;;;;;;;;;;;;;;2042506;29;1320;-81
2021/07/31 08:00:44;;;;;;;;;;;;;;;;;;2056148;28;1624;-82
2021/07/31 08:01:44;;;;;;;;;;;;;;;;;;2051990;28;1255;-82
2021/07/31 08:02:46;;;;;;;;;;;;;;;;;;2034851;29;1681;-82
2021/07/31 08:03:48;;;;;;;;;;;;;;;;;;2035050;29;1520;-81
2021/07/31 08:04:50;;;;;;;;;;;;;;;;;;2035108;29;1828;-82
2021/07/31 08:05:51;;;;;;;;;;;;;;;;;;2047981;28;1675;-82
2021/07/31 08:06:52;;;;;;;;;;;;;;;;;;2043918;29;1257;-81
2021/07/31 08:07:53;;;;;;;;;;;;;;;;;;2050602;29;816;-82
2021/07/31 08:08:55;;;;;;;;;;;;;;;;;;2050632;29;1663;-82
2021/07/31 08:09:55;;;;;;;;;;;;;;;;;;2042683;29;1787;-83
2021/07/31 08:10:57;;;;;;;;;;;;;;;;;;2045340;29;1483;-82
2021/07/31 08:11:58;;;;;;;;;;;;;;;;;;2055635;28;1343;-82
2021/07/31 08:13:00;;;;;;;;;;;;;;;;;;2053637;28;1739;-82
2021/07/31 08:14:00;;;;;;;;;;;;;;;;;;2042792;29;1569;-83
2021/07/31 08:15:02;;;;;;;;;;;;;;;;;;2042612;29;1746;-83
2021/07/31 08:16:04;;;;;;;;;;;;;;;;;;2042563;29;1370;-81
2021/07/31 08:17:05;;;;;;;;;;;;;;;;;;2050085;29;1981;-80
2021/07/31 08:18:07;;;;;;;;;;;;;;;;;;2045710;29;1576;-82
2021/07/31 08:19:10;;;;;;;;;;;;;;;;;;2049217;28;1554;-83
2021/07/31 08:20:13;;;;;;;;;;;;;;;;;;2046391;28;1740;-84
2021/07/31 08:21:13;;;;;;;;;;;;;;;;;;2050695;28;1347;-83
2021/07/31 08:22:15;;;;;;;;;;;;;;;;;;2050392;29;1853;-82
2021/07/31 08:23:16;;;;;;;;;;;;;;;;;;2050227;29;1251;-80
2021/07/31 08:24:17;;;;;;;;;;;;;;;;;;2052210;28;1318;-81
2021/07/31 08:25:18;;;;;;;;;;;;;;;;;;2045395;29;1680;-80
2021/07/31 08:26:20;;;;;;;;;;;;;;;;;;2045175;29;1361;-80
2021/07/31 08:27:20;;;;;;;;;;;;;;;;;;2044825;29;1446;-82
2021/07/31 08:28:22;;;;;;;;;;;;;;;;;;2054832;28;1347;-81
2021/07/31 08:29:23;;;;;;;;;;;;;;;;;;2050500;29;1324;-82
2021/07/31 08:30:25;;;;;;;;;;;;;;;;;;2043805;28;1744;-83
2021/07/31 08:31:26;;;;;;;;;;;;;;;;;;2052803;28;1354;-83
2021/07/31 08:32:28;;;;;;;;;;;;;;;;;;2047661;28;1295;-83
2021/07/31 08:33:30;;;;;;;;;;;;;;;;;;2053709;28;1506;-83
2021/07/31 08:34:33;;;;;;;;;;;;;;;;;;2057615;28;1554;-84
2021/07/31 08:35:34;;;;;;;;;;;;;;;;;;2048077;28;1270;-84
2021/07/31 08:36:36;;;;;;;;;;;;;;;;;;2047550;28;1980;-84
2021/07/31 08:37:37;;;;;;;;;;;;;;;;;;2043393;29;1615;-83
2021/07/31 08:38:39;;;;;;;;;;;;;;;;;;2040324;28;1543;-83
2021/07/31 08:39:41;;;;;;;;;;;;;;;;;;2044577;29;1619;-84
2021/07/31 08:40:43;;;;;;;;;;;;;;;;;;2042371;29;1776;-84
2021/07/31 08:41:46;;;;;;;;;;;;;;;;;;2042438;29;1559;-84
2021/07/31 08:42:47;;;;;;;;;;;;;;;;;;2042612;29;1657;-83
2021/07/31 08:43:48;;;;;;;;;;;;;;;;;;2057065;28;1514;-84
2021/07/31 08:44:49;;;;;;;;;;;;;;;;;;2046562;29;1338;-85
2021/07/31 08:45:52;;;;;;;;;;;;;;;;;;2042311;29;1366;-83
2021/07/31 08:46:53;;;;;;;;;;;;;;;;;;2034514;29;1409;-84
2021/07/31 08:47:56;;;;;;;;;;;;;;;;;;2035304;29;1739;-84
2021/07/31 08:48:56;;;;;;;;;;;;;;;;;;2042429;29;1263;-84
2021/07/31 08:50:00;;;;;;;;;;;;;;;;;;2042141;29;1668;-83
2021/07/31 08:51:02;;;;;;;;;;;;;;;;;;2042430;29;1514;-84
2021/07/31 08:52:04;;;;;;;;;;;;;;;;;;2054541;28;1504;-85
2021/07/31 08:53:09;;;;;;;;;;;;;;;;;;2051542;28;1332;-82
2021/07/31 08:54:10;;;;;;;;;;;;;;;;;;2050173;29;1368;-83
2021/07/31 08:55:11;;;;;;;;;;;;;;;;;;2042217;29;1923;-83
2021/07/31 08:56:13;;;;;;;;;;;;;;;;;;2041952;29;1638;-85
2021/07/31 08:57:14;;;;;;;;;;;;;;;;;;2045924;28;1966;-85
2021/07/31 08:58:15;;;;;;;;;;;;;;;;;;2042232;29;1214;-85
2021/07/31 08:59:16;;;;;;;;;;;;;;;;;;2042435;28;1365;-85
2021/07/31 09:00:18;;;;;;;;;;;;;;;;;;2047439;29;1641;-86
2021/07/31 09:01:19;;;;;;;;;;;;;;;;;;2042399;29;1288;-83
2021/07/31 09:02:21;;;;;;;;;;;;;;;;;;2042323;29;1698;-83
2021/07/31 09:03:22;;;;;;;;;;;;;;;;;;2042281;29;1704;-86
2021/07/31 09:04:24;;;;;;;;;;;;;;;;;;2044771;29;1322;-83
2021/07/31 09:05:30;;;;;;;;;;;;;;;;;;2050459;28;1721;-85
2021/07/31 09:08:24;;;;;;;;;;;;;;;;;;2134984;27;1342;-83
2021/07/31 09:09:25;;;;;;;;;;;;;;;;;;2131449;27;1668;-86
2021/07/31 09:10:27;;;;;;;;;;;;;;;;;;2109693;28;1380;-84
2021/07/31 09:11:29;;;;;;;;;;;;;;;;;;2114267;28;1710;-83
2021/07/31 09:12:30;;;;;;;;;;;;;;;;;;2103676;28;1549;-82
2021/07/31 09:13:31;;;;;;;;;;;;;;;;;;2113303;28;1285;-82
2021/07/31 09:14:33;;;;;;;;;;;;;;;;;;2114547;28;1663;-82
2021/07/31 09:15:36;;;;;;;;;;;;;;;;;;2114599;28;1545;-81
2021/07/31 09:16:38;;;;;;;;;;;;;;;;;;2122039;27;1663;-83
2021/07/31 09:17:40;;;;;;;;;;;;;;;;;;2129119;27;1295;-83
2021/07/31 09:18:44;;;;;;;;;;;;;;;;;;2106768;28;1621;-84
2021/07/31 09:19:45;;;;;;;;;;;;;;;;;;2113745;28;1643;-88
2021/07/31 09:20:52;;;;;;;;;;;;;;;;;;2106024;28;1613;-88
2021/07/31 09:22:03;;;;;;;;;;;;;;;;;;2106981;28;1254;-87
2021/07/31 09:23:03;;;;;;;;;;;;;;;;;;2109102;28;1926;-87
2021/07/31 09:24:14;;;;;;;;;;;;;;;;;;2115276;28;1360;-84
2021/07/31 09:25:16;;;;;;;;;;;;;;;;;;2108281;28;1532;-84
2021/07/31 09:26:20;;;;;;;;;;;;;;;;;;2115197;28;1300;-87
2021/07/31 09:27:28;;;;;;;;;;;;;;;;;;2107565;28;1237;-86
2021/07/31 09:28:31;;;;;;;;;;;;;;;;;;2107146;28;1967;-84
2021/07/31 09:29:35;;;;;;;;;;;;;;;;;;2106502;28;1486;-88
2021/07/31 09:30:48;;;;;;;;;;;;;;;;;;2114793;28;1289;-88
2021/07/31 09:31:53;;;;;;;;;;;;;;;;;;2108231;28;1552;-87
2021/07/31 09:33:01;;;;;;;;;;;;;;;;;;2106126;28;1564;-84
2021/07/31 09:34:04;;;;;;;;;;;;;;;;;;2106697;28;1434;-86
2021/07/31 09:35:19;;;;;;;;;;;;;;;;;;2106681;28;1250;-84
2021/07/31 09:36:21;;;;;;;;;;;;;;;;;;2114144;28;1535;-85
2021/07/31 09:37:23;;;;;;;;;;;;;;;;;;2114366;28;1572;-83
2021/07/31 09:38:34;;;;;;;;;;;;;;;;;;2101731;28;1737;-84
2021/07/31 09:40:08;;;;;;;;;;;;;;;;;;2107207;28;1651;-87
2021/07/31 09:41:21;;;;;;;;;;;;;;;;;;2108297;28;1364;-87
2021/07/31 09:42:30;;;;;;;;;;;;;;;;;;2113240;28;1351;-89
2021/07/31 09:43:31;;;;;;;;;;;;;;;;;;2104985;28;1679;-88
2021/07/31 09:44:32;;;;;;;;;;;;;;;;;;2109122;28;1386;-89
2021/07/31 09:45:33;;;;;;;;;;;;;;;;;;2113668;28;1380;-88
2021/07/31 09:46:36;;;;;;;;;;;;;;;;;;2106429;28;1356;-88
2021/07/31 09:47:39;;;;;;;;;;;;;;;;;;2106178;28;1910;-92
2021/07/31 09:48:56;;;;;;;;;;;;;;;;;;2107080;28;1304;-89
2021/07/31 09:49:59;;;;;;;;;;;;;;;;;;2111044;28;1345;-84
2021/07/31 09:50:59;;;;;;;;;;;;;;;;;;2111170;28;1377;-83
2021/07/31 09:52:16;;;;;;;;;;;;;;;;;;2109717;28;1331;-83
2021/07/31 09:53:18;;;;;;;;;;;;;;;;;;2115256;28;1291;-84
2021/07/31 09:54:21;;;;;;;;;;;;;;;;;;2114400;28;1276;-83
2021/07/31 09:55:23;;;;;;;;;;;;;;;;;;2106335;28;1499;-82
2021/07/31 09:56:25;;;;;;;;;;;;;;;;;;2106055;28;1653;-82
2021/07/31 09:57:28;;;;;;;;;;;;;;;;;;2114103;28;1695;-83
2021/07/31 09:58:31;;;;;;;;;;;;;;;;;;2106471;28;1197;-82
2021/07/31 09:59:33;;;;;;;;;;;;;;;;;;2106414;28;1471;-82
2021/07/31 10:00:34;;;;;;;;;;;;;;;;;;2106103;28;1332;-82
2021/07/31 10:01:36;;;;;;;;;;;;;;;;;;2112975;28;1596;-84
2021/07/31 10:02:39;;;;;;;;;;;;;;;;;;2114312;28;1689;-82
2021/07/31 10:03:40;;;;;;;;;;;;;;;;;;2106366;28;1407;-82
2021/07/31 10:04:42;;;;;;;;;;;;;;;;;;2106195;28;1567;-81
2021/07/31 10:05:43;;;;;;;;;;;;;;;;;;2106223;28;1611;-82
2021/07/31 10:06:45;;;;;;;;;;;;;;;;;;2106145;28;1399;-82
2021/07/31 10:07:46;;;;;;;;;;;;;;;;;;2105647;28;1985;-83
2021/07/31 10:08:49;;;;;;;;;;;;;;;;;;2113765;28;1942;-82
2021/07/31 10:09:49;;;;;;;;;;;;;;;;;;2106040;28;1657;-82
2021/07/31 10:10:53;;;;;;;;;;;;;;;;;;2106051;28;1585;-83
2021/07/31 10:11:54;;;;;;;;;;;;;;;;;;2097913;28;1662;-83
2021/07/31 10:12:56;;;;;;;;;;;;;;;;;;2102819;28;1724;-85
2021/07/31 10:13:58;;;;;;;;;;;;;;;;;;2097776;28;1122;-83
2021/07/31 10:15:00;;;;;;;;;;;;;;;;;;2098266;28;1344;-83
2021/07/31 10:16:01;;;;;;;;;;;;;;;;;;2112509;28;1440;-84
2021/07/31 10:17:03;;;;;;;;;;;;;;;;;;2105885;28;1424;-84
2021/07/31 10:18:09;;;;;;;;;;;;;;;;;;2098022;28;2097;-83
2021/07/31 10:19:11;;;;;;;;;;;;;;;;;;2096138;28;1214;-84
2021/07/31 10:20:21;;;;;;;;;;;;;;;;;;2098934;28;1481;-83
2021/07/31 10:21:23;;;;;;;;;;;;;;;;;;2105676;28;1715;-83
2021/07/31 10:22:41;;;;;;;;;;;;;;;;;;2109396;28;1134;-83
2021/07/31 10:23:58;;;;;;;;;;;;;;;;;;2108447;28;1542;-83
2021/07/31 10:25:07;;;;;;;;;;;;;;;;;;2096917;28;1535;-86
2021/07/31 10:26:11;;;;;;;;;;;;;;;;;;2102430;28;1356;-85
2021/07/31 10:27:23;;;;;;;;;;;;;;;;;;2109138;28;1226;-85
2021/07/31 10:28:25;;;;;;;;;;;;;;;;;;2101776;28;1910;-84
2021/07/31 10:29:40;;;;;;;;;;;;;;;;;;2100783;28;1752;-86
2021/07/31 10:30:41;;;;;;;;;;;;;;;;;;2100071;28;1412;-85
2021/07/31 10:31:42;;;;;;;;;;;;;;;;;;2100342;28;1388;-85
2021/07/31 10:32:45;;;;;;;;;;;;;;;;;;2098817;28;1348;-85
2021/07/31 10:33:50;;;;;;;;;;;;;;;;;;2106660;28;1562;-86
2021/07/31 10:34:52;;;;;;;;;;;;;;;;;;2100349;28;1356;-85
2021/07/31 10:36:14;;;;;;;;;;;;;;;;;;2100397;28;1367;-84
2021/07/31 10:37:30;;;;;;;;;;;;;;;;;;2102584;28;1360;-84
2021/07/31 10:38:36;;;;;;;;;;;;;;;;;;2097433;28;1528;-86
2021/07/31 10:39:40;;;;;;;;;;;;;;;;;;2095944;28;1592;-85
2021/07/31 10:40:42;;;;;;;;;;;;;;;;;;2100718;28;1563;-81
2021/07/31 10:41:59;;;;;;;;;;;;;;;;;;2100618;28;1536;-87
2021/07/31 10:43:03;;;;;;;;;;;;;;;;;;2101717;28;2013;-86
2021/07/31 10:44:11;;;;;;;;;;;;;;;;;;2100952;28;1318;-95
2021/07/31 10:45:21;;;;;;;;;;;;;;;;;;2101830;28;1321;-92
2021/07/31 10:46:26;;;;;;;;;;;;;;;;;;2108835;28;1723;-87
2021/07/31 10:47:38;;;;;;;;;;;;;;;;;;2101298;28;1407;-85
2021/07/31 10:48:40;;;;;;;;;;;;;;;;;;2092466;28;1914;-88
2021/07/31 10:49:41;;;;;;;;;;;;;;;;;;2095986;28;1568;-84
2021/07/31 10:50:43;;;;;;;;;;;;;;;;;;2092732;28;1269;-86
2021/07/31 10:51:44;;;;;;;;;;;;;;;;;;2107995;28;1774;-86
2021/07/31 10:52:52;;;;;;;;;;;;;;;;;;2100789;28;1249;-87
2021/07/31 10:53:55;;;;;;;;;;;;;;;;;;2099872;28;2033;-87
2021/07/31 10:54:59;;;;;;;;;;;;;;;;;;2100528;28;1150;-86
2021/07/31 10:56:07;;;;;;;;;;;;;;;;;;2100060;28;1441;-86
2021/07/31 10:57:10;;;;;;;;;;;;;;;;;;2100535;28;1296;-86
2021/07/31 10:58:12;;;;;;;;;;;;;;;;;;2097383;28;1692;-84
2021/07/31 10:59:16;;;;;;;;;;;;;;;;;;2103949;28;1677;-86
2021/07/31 11:00:22;;;;;;;;;;;;;;;;;;2100327;28;1453;-86
2021/07/31 11:01:23;;;;;;;;;;;;;;;;;;2105490;28;1280;-85
2021/07/31 11:02:36;;;;;;;;;;;;;;;;;;2107860;28;1333;-86
2021/07/31 11:03:40;;;;;;;;;;;;;;;;;;2101940;28;1231;-85
2021/07/31 11:04:59;;;;;;;;;;;;;;;;;;2100745;28;1358;-86
2021/07/31 11:06:01;;;;;;;;;;;;;;;;;;2102867;28;1229;-86
2021/07/31 11:07:10;;;;;;;;;;;;;;;;;;2095072;28;1376;-87
2021/07/31 11:08:11;;;;;;;;;;;;;;;;;;2090431;28;1907;-89
2021/07/31 11:09:16;;;;;;;;;;;;;;;;;;2100192;28;1332;-86
2021/07/31 11:10:34;;;;;;;;;;;;;;;;;;2100345;28;1319;-87
2021/07/31 11:11:36;;;;;;;;;;;;;;;;;;2105249;28;1481;-87
2021/07/31 11:12:43;;;;;;;;;;;;;;;;;;2100276;28;1188;-84
2021/07/31 11:13:52;;;;;;;;;;;;;;;;;;2100152;28;2111;-88
2021/07/31 11:15:03;;;;;;;;;;;;;;;;;;2100700;28;1199;-86
2021/07/31 11:16:17;;;;;;;;;;;;;;;;;;2102903;28;1256;-86
2021/07/31 11:17:19;;;;;;;;;;;;;;;;;;2100196;28;1221;-86
2021/07/31 11:18:20;;;;;;;;;;;;;;;;;;2099823;28;1319;-85
2021/07/31 11:19:34;;;;;;;;;;;;;;;;;;2092539;28;1564;-86
2021/07/31 11:20:36;;;;;;;;;;;;;;;;;;2102040;28;1482;-87
2021/07/31 11:21:41;;;;;;;;;;;;;;;;;;2086982;28;1641;-84
2021/07/31 11:22:49;;;;;;;;;;;;;;;;;;2084463;28;1281;-87
2021/07/31 11:23:52;;;;;;;;;;;;;;;;;;2105335;28;1563;-87
2021/07/31 11:24:58;;;;;;;;;;;;;;;;;;2107183;28;1560;-89
2021/07/31 11:27:23;;;;;;;;;;;;;;;;;;2098031;28;1296;-88
2021/07/31 11:28:42;;;;;;;;;;;;;;;;;;2107826;28;1965;-88
2021/07/31 11:29:55;;;;;;;;;;;;;;;;;;2100333;28;1336;-87
2021/07/31 11:30:56;;;;;;;;;;;;;;;;;;2106800;28;1355;-89
2021/07/31 11:31:59;;;;;;;;;;;;;;;;;;2108150;28;1312;-90
2021/07/31 11:33:15;;;;;;;;;;;;;;;;;;2107802;28;1250;-91
2021/07/31 11:35:43;;;;;;;;;;;;;;;;;;2103590;28;1450;-88
2021/07/31 11:36:55;;;;;;;;;;;;;;;;;;2108712;28;1351;-88
2021/07/31 11:37:56;;;;;;;;;;;;;;;;;;2100563;28;1667;-93
2021/07/31 11:38:58;;;;;;;;;;;;;;;;;;2099931;28;1028;-89
2021/07/31 11:40:02;;;;;;;;;;;;;;;;;;2108959;28;1363;-89
2021/07/31 11:41:06;;;;;;;;;;;;;;;;;;2100175;28;1226;-89
2021/07/31 11:42:08;;;;;;;;;;;;;;;;;;2100551;28;1244;-92
2021/07/31 11:43:09;;;;;;;;;;;;;;;;;;2101818;28;1213;-89
2021/07/31 11:44:11;;;;;;;;;;;;;;;;;;2100092;28;1379;-88
2021/07/31 11:45:13;;;;;;;;;;;;;;;;;;2100364;28;1241;-88
2021/07/31 11:46:27;;;;;;;;;;;;;;;;;;2096041;28;1731;-86
2021/07/31 11:47:29;;;;;;;;;;;;;;;;;;2105506;28;1355;-84
2021/07/31 11:48:32;;;;;;;;;;;;;;;;;;2107658;28;1972;-86
2021/07/31 11:50:03;;;;;;;;;;;;;;;;;;2100127;28;1631;-89
2021/07/31 11:51:06;;;;;;;;;;;;;;;;;;2103819;28;1179;-88
2021/07/31 11:52:11;;;;;;;;;;;;;;;;;;2108088;28;1473;-91
2021/07/31 11:53:33;;;;;;;;;;;;;;;;;;2106332;28;1360;-90
2021/07/31 11:54:39;;;;;;;;;;;;;;;;;;2100130;28;1344;-88
2021/07/31 11:55:42;;;;;;;;;;;;;;;;;;2104303;28;1423;-89
2021/07/31 11:56:45;;;;;;;;;;;;;;;;;;2100285;28;1575;-88
2021/07/31 11:57:49;;;;;;;;;;;;;;;;;;2102191;28;1404;-89
2021/07/31 11:58:51;;;;;;;;;;;;;;;;;;2106469;28;2080;-87
2021/07/31 11:59:59;;;;;;;;;;;;;;;;;;2108076;28;1337;-91
2021/07/31 12:01:02;;;;;;;;;;;;;;;;;;2094052;28;1380;-87
2021/07/31 12:02:13;;;;;;;;;;;;;;;;;;2098707;28;1363;-90
2021/07/31 12:03:29;;;;;;;;;;;;;;;;;;2101446;28;1194;-89
2021/07/31 12:04:43;;;;;;;;;;;;;;;;;;2100514;28;1286;-87
2021/07/31 12:05:44;;;;;;;;;;;;;;;;;;2101312;28;1307;-88
2021/07/31 12:06:46;;;;;;;;;;;;;;;;;;2108085;28;1497;-87
2021/07/31 12:07:54;;;;;;;;;;;;;;;;;;2107571;28;1488;-93
2021/07/31 12:09:06;;;;;;;;;;;;;;;;;;2101631;28;1983;-93
2021/07/31 12:10:33;;;;;;;;;;;;;;;;;;2101731;28;1344;-91
2021/07/31 12:12:13;;;;;;;;;;;;;;;;;;2103471;28;1317;-91
2021/07/31 12:13:17;;;;;;;;;;;;;;;;;;2103786;28;1343;-90
2021/07/31 12:14:40;;;;;;;;;;;;;;;;;;2099977;28;1269;-89
2021/07/31 12:18:22;;;;;;;;;;;;;;;;;;2084001;28;1887;-95
2021/07/31 12:25:37;;;;;;;;;;;;;;;;;;2043889;29;634;-92
2021/07/31 12:26:39;;;;;;;;;;;;;;;;;;2049090;29;1074;-91
2021/07/31 12:30:22;;;;;;;;;;;;;;;;;;2044845;29;1159;-94
2021/07/31 12:31:26;;;;;;;;;;;;;;;;;;2058681;28;1217;-93
2021/07/31 12:37:57;;;;;;;;;;;;;;;;;;2059444;28;1240;-90
2021/07/31 12:38:58;;;;;;;;;;;;;;;;;;2082566;28;1221;-89
2021/07/31 12:40:03;;;;;;;;;;;;;;;;;;2074478;28;1268;-92
2021/07/31 12:41:06;;;;;;;;;;;;;;;;;;2087319;28;1373;-87
2021/07/31 12:42:08;;;;;;;;;;;;;;;;;;2091072;28;1239;-88
2021/07/31 12:43:10;;;;;;;;;;;;;;;;;;2099722;28;1480;-88
2021/07/31 12:44:12;;;;;;;;;;;;;;;;;;2091286;28;1238;-87
2021/07/31 12:45:14;;;;;;;;;;;;;;;;;;2099716;28;954;-88
2021/07/31 12:46:16;;;;;;;;;;;;;;;;;;2099562;28;1230;-88
2021/07/31 12:47:17;;;;;;;;;;;;;;;;;;2091440;28;1380;-88
2021/07/31 12:48:19;;;;;;;;;;;;;;;;;;2091305;28;1387;-89
2021/07/31 12:49:21;;;;;;;;;;;;;;;;;;2091504;28;1902;-87
2021/07/31 12:50:24;;;;;;;;;;;;;;;;;;2090975;28;1584;-87
2021/07/31 12:51:26;;;;;;;;;;;;;;;;;;2091061;28;1242;-85
2021/07/31 12:52:28;;;;;;;;;;;;;;;;;;2091588;28;1312;-87
2021/07/31 12:53:31;;;;;;;;;;;;;;;;;;2091365;28;1443;-88
2021/07/31 12:54:36;;;;;;;;;;;;;;;;;;2083345;28;1317;-88
2021/07/31 12:55:36;;;;;;;;;;;;;;;;;;2084091;28;1429;-89
2021/07/31 12:56:40;;;;;;;;;;;;;;;;;;2091253;28;1211;-87
2021/07/31 12:57:42;;;;;;;;;;;;;;;;;;2099736;28;877;-88
2021/07/31 12:58:44;;;;;;;;;;;;;;;;;;2107356;28;1302;-86
2021/07/31 12:59:45;;;;;;;;;;;;;;;;;;2099817;28;1263;-88
2021/07/31 13:00:47;;;;;;;;;;;;;;;;;;2091504;28;1232;-90
2021/07/31 13:01:48;;;;;;;;;;;;;;;;;;2099871;28;1201;-88
2021/07/31 13:02:50;;;;;;;;;;;;;;;;;;2108007;28;1365;-89
2021/07/31 13:03:51;;;;;;;;;;;;;;;;;;2099646;28;1276;-88
2021/07/31 13:04:53;;;;;;;;;;;;;;;;;;2099948;28;1400;-88
2021/07/31 13:15:34;;;;;;;;;;;;;;;;;;2066832;28;681;-92
2021/07/31 13:16:47;;;;;;;;;;;;;;;;;;2058483;28;1217;-89
2021/07/31 13:17:52;;;;;;;;;;;;;;;;;;2050189;28;1273;-90
2021/07/31 13:19:27;;;;;;;;;;;;;;;;;;2058872;28;1173;-93
2021/07/31 13:20:47;;;;;;;;;;;;;;;;;;2061346;28;1433;-93
2021/07/31 13:22:10;;;;;;;;;;;;;;;;;;2041498;28;1352;-91
2021/07/31 13:25:15;;;;;;;;;;;;;;;;;;2065812;28;630;-92
2021/07/31 13:26:15;;;;;;;;;;;;;;;;;;2057985;28;1380;-87
2021/07/31 13:27:28;;;;;;;;;;;;;;;;;;2050289;28;1368;-90
2021/07/31 13:28:29;;;;;;;;;;;;;;;;;;2051240;28;1414;-87
2021/07/31 13:29:31;;;;;;;;;;;;;;;;;;2058131;28;1973;-88
2021/07/31 13:30:43;;;;;;;;;;;;;;;;;;2060344;28;1649;-88
2021/07/31 13:33:52;;;;;;;;;;;;;;;;;;2093265;28;1483;-89
2021/07/31 13:34:55;;;;;;;;;;;;;;;;;;2099288;28;1233;-88
2021/07/31 13:35:57;;;;;;;;;;;;;;;;;;2104197;28;1634;-87
2021/07/31 13:37:02;;;;;;;;;;;;;;;;;;2099198;28;1399;-87
2021/07/31 13:38:04;;;;;;;;;;;;;;;;;;2099629;28;1367;-88
2021/07/31 13:39:09;;;;;;;;;;;;;;;;;;2099074;28;1314;-89
2021/07/31 13:40:19;;;;;;;;;;;;;;;;;;2099175;28;1383;-88
2021/07/31 13:41:19;;;;;;;;;;;;;;;;;;2099308;28;2067;-88
2021/07/31 13:42:29;;;;;;;;;;;;;;;;;;2098845;28;1321;-88
2021/07/31 13:43:37;;;;;;;;;;;;;;;;;;2100490;28;1310;-87
2021/07/31 13:44:44;;;;;;;;;;;;;;;;;;2099340;28;1284;-89
2021/07/31 13:45:46;;;;;;;;;;;;;;;;;;2098251;28;1766;-89
2021/07/31 13:46:51;;;;;;;;;;;;;;;;;;2090846;28;1246;-88
2021/07/31 13:47:53;;;;;;;;;;;;;;;;;;2094481;28;1327;-91
2021/07/31 13:49:05;;;;;;;;;;;;;;;;;;2106676;28;2043;-91
2021/07/31 13:50:07;;;;;;;;;;;;;;;;;;2107241;28;1510;-90
2021/07/31 13:51:13;;;;;;;;;;;;;;;;;;2096828;28;1383;-93
2021/07/31 13:52:16;;;;;;;;;;;;;;;;;;2100304;28;1311;-89
2021/07/31 13:53:20;;;;;;;;;;;;;;;;;;2107955;28;915;-90
2021/07/31 13:54:24;;;;;;;;;;;;;;;;;;2107117;28;1323;-90
2021/07/31 13:55:30;;;;;;;;;;;;;;;;;;2106065;28;1716;-91
2021/07/31 13:56:32;;;;;;;;;;;;;;;;;;2107522;28;1469;-89
2021/07/31 13:57:36;;;;;;;;;;;;;;;;;;2105583;28;1428;-88
2021/07/31 13:58:37;;;;;;;;;;;;;;;;;;2103351;28;1359;-88
2021/07/31 13:59:41;;;;;;;;;;;;;;;;;;2107690;28;1328;-89
2021/07/31 14:00:43;;;;;;;;;;;;;;;;;;2100194;28;1384;-87
2021/07/31 14:01:46;;;;;;;;;;;;;;;;;;2097398;28;1450;-88
2021/07/31 14:02:48;;;;;;;;;;;;;;;;;;2098983;28;1366;-88
2021/07/31 14:03:50;;;;;;;;;;;;;;;;;;2100244;28;1336;-87
2021/07/31 14:04:53;;;;;;;;;;;;;;;;;;2102054;28;1292;-87
2021/07/31 14:05:55;;;;;;;;;;;;;;;;;;2100819;28;1280;-87
2021/07/31 14:06:56;;;;;;;;;;;;;;;;;;2108646;28;1341;-86
2021/07/31 14:07:58;;;;;;;;;;;;;;;;;;2100844;28;1759;-89
2021/07/31 14:08:58;;;;;;;;;;;;;;;;;;2102104;28;1977;-88
2021/07/31 14:10:07;;;;;;;;;;;;;;;;;;2108965;28;1338;-88
2021/07/31 14:11:08;;;;;;;;;;;;;;;;;;2097773;28;2055;-89
2021/07/31 14:12:24;;;;;;;;;;;;;;;;;;2092169;28;1308;-90
2021/07/31 14:13:24;;;;;;;;;;;;;;;;;;2104548;28;2016;-89
2021/07/31 14:14:31;;;;;;;;;;;;;;;;;;2095267;28;1330;-89
2021/07/31 14:15:33;;;;;;;;;;;;;;;;;;2100985;28;1318;-87
2021/07/31 14:16:35;;;;;;;;;;;;;;;;;;2113330;28;1308;-86
2021/07/31 14:17:39;;;;;;;;;;;;;;;;;;2100447;28;1217;-87
2021/07/31 14:18:54;;;;;;;;;;;;;;;;;;2101293;28;1270;-88
2021/07/31 14:19:57;;;;;;;;;;;;;;;;;;2099754;28;1513;-87
2021/07/31 14:20:59;;;;;;;;;;;;;;;;;;2100148;28;2134;-87
2021/07/31 14:22:00;;;;;;;;;;;;;;;;;;2100711;28;1507;-87
2021/07/31 14:23:02;;;;;;;;;;;;;;;;;;2099966;28;1335;-87
2021/07/31 14:24:03;;;;;;;;;;;;;;;;;;2095775;28;1285;-87
2021/07/31 14:25:05;;;;;;;;;;;;;;;;;;2097730;28;1719;-88
2021/07/31 14:26:12;;;;;;;;;;;;;;;;;;2097454;28;1289;-91
2021/07/31 14:27:14;;;;;;;;;;;;;;;;;;2100128;28;1343;-87
2021/07/31 14:28:14;;;;;;;;;;;;;;;;;;2108340;28;1289;-88
2021/07/31 14:29:16;;;;;;;;;;;;;;;;;;2108321;28;1985;-89
2021/07/31 14:30:17;;;;;;;;;;;;;;;;;;2099418;28;1695;-87